createdAt,value
2023-03-31T00:02:15.568Z,93716.56
2023-03-31T00:04:46.776Z,93713.31
2023-03-31T00:07:16.345Z,93712.41
2023-03-31T00:09:48.379Z,93704.72
2023-03-31T00:12:16.676Z,93702.38
2023-03-31T00:14:43.924Z,93698.16
2023-03-31T00:17:11.551Z,93706.81
2023-03-31T00:19:40.292Z,93698.00
2023-03-31T00:22:08.193Z,93702.22
2023-03-31T00:24:35.752Z,93692.66
2023-03-31T00:27:04.169Z,93693.53
2023-03-31T00:29:31.668Z,93692.44
2023-03-31T00:31:59.816Z,93686.75
2023-03-31T00:34:27.041Z,93677.50
2023-03-31T00:36:56.765Z,93680.16
2023-03-31T00:39:24.821Z,93675.63
2023-03-31T00:41:51.744Z,93662.59
2023-03-31T00:44:24.813Z,93649.66
2023-03-31T00:47:13.482Z,93650.00
2023-03-31T00:49:51.890Z,93636.22
2023-03-31T00:52:23.896Z,93636.53
2023-03-31T00:55:05.219Z,93630.28
2023-03-31T00:57:39.361Z,93633.75
2023-03-31T01:00:16.046Z,93628.06
2023-03-31T01:02:58.196Z,93634.66
2023-03-31T01:05:34.438Z,93636.09
2023-03-31T01:08:02.497Z,93635.63
2023-03-31T01:10:33.148Z,93632.06
2023-03-31T01:12:59.901Z,93621.56
2023-03-31T01:15:27.080Z,93621.81
2023-03-31T01:17:55.954Z,93633.25
2023-03-31T01:20:57.080Z,93628.59
2023-03-31T01:23:42.451Z,93622.22
2023-03-31T01:26:38.842Z,93613.88
2023-03-31T01:29:18.925Z,93603.50
2023-03-31T01:31:54.104Z,93601.44
2023-03-31T01:34:53.197Z,93599.66
2023-03-31T01:37:32.072Z,93595.19
2023-03-31T01:40:21.951Z,93587.44
2023-03-31T01:43:00.967Z,93592.56
2023-03-31T01:45:42.549Z,93597.25
2023-03-31T01:48:18.341Z,93587.78
2023-03-31T01:50:59.291Z,93586.44
2023-03-31T01:53:32.063Z,93595.69
2023-03-31T01:56:04.939Z,93582.78
2023-03-31T01:58:35.059Z,93570.97
2023-03-31T02:01:37.501Z,93575.34
2023-03-31T02:04:13.582Z,93558.97
2023-03-31T02:06:52.929Z,93575.78
2023-03-31T02:09:28.554Z,93557.84
2023-03-31T02:11:58.711Z,93550.63
2023-03-31T02:14:29.684Z,93543.72
2023-03-31T02:16:59.408Z,93550.72
2023-03-31T02:19:31.875Z,93551.41
2023-03-31T02:21:59.705Z,93553.75
2023-03-31T02:24:28.449Z,93539.63
2023-03-31T02:27:03.594Z,93559.75
2023-03-31T02:29:31.466Z,93553.50
2023-03-31T02:32:21.021Z,93551.41
2023-03-31T02:34:48.375Z,93542.03
2023-03-31T02:37:15.761Z,93542.69
2023-03-31T02:39:47.473Z,93538.38
2023-03-31T02:42:14.845Z,93548.41
2023-03-31T02:44:41.918Z,93537.00
2023-03-31T02:47:13.439Z,93531.00
2023-03-31T02:49:45.180Z,93530.22
2023-03-31T02:52:20.933Z,93530.22
2023-03-31T02:54:50.785Z,93525.53
2023-03-31T02:57:33.010Z,93516.31
2023-03-31T03:00:34.225Z,93518.31
2023-03-31T03:03:35.839Z,93500.28
2023-03-31T03:06:33.614Z,93501.81
2023-03-31T03:09:15.062Z,93497.25
2023-03-31T03:11:55.023Z,93491.72
2023-03-31T03:14:36.239Z,93486.38
2023-03-31T03:17:09.587Z,93463.88
2023-03-31T03:19:36.311Z,93435.91
2023-03-31T03:22:03.201Z,93427.22
2023-03-31T03:24:30.011Z,93403.84
2023-03-31T03:26:56.830Z,93376.00
2023-03-31T03:29:23.519Z,93380.56
2023-03-31T03:31:50.646Z,93368.00
2023-03-31T03:34:18.650Z,93357.97
2023-03-31T03:36:45.303Z,93355.75
2023-03-31T03:39:12.393Z,93364.88
2023-03-31T03:41:40.138Z,93362.53
2023-03-31T03:44:06.755Z,93350.53
2023-03-31T03:46:33.490Z,93354.47
2023-03-31T03:49:00.187Z,93351.13
2023-03-31T03:51:48.053Z,93347.47
2023-03-31T03:54:27.696Z,93342.47
2023-03-31T03:57:01.925Z,93343.38
2023-03-31T03:59:46.064Z,93334.25
2023-03-31T04:02:22.573Z,93334.81
2023-03-31T04:05:00.476Z,93322.72
2023-03-31T04:07:49.077Z,93323.59
2023-03-31T04:10:31.010Z,93328.34
2023-03-31T04:13:05.933Z,93311.69
2023-03-31T04:15:36.904Z,93311.25
2023-03-31T04:18:06.198Z,93307.78
2023-03-31T04:20:35.936Z,93303.13
2023-03-31T04:23:32.075Z,93297.78
2023-03-31T04:40:02.524Z,93266.44
2023-03-31T04:42:33.623Z,93261.31
2023-03-31T04:45:23.990Z,93242.00
2023-03-31T04:48:08.235Z,93244.78
2023-03-31T04:51:11.739Z,93240.22
2023-03-31T04:53:59.566Z,93211.34
2023-03-31T04:56:30.815Z,93196.34
2023-03-31T04:58:59.009Z,93202.66
2023-03-31T05:01:27.108Z,93206.09
2023-03-31T05:03:58.478Z,93204.66
2023-03-31T05:06:31.196Z,93209.66
2023-03-31T05:08:59.395Z,93202.75
2023-03-31T05:11:30.667Z,93198.97
2023-03-31T05:13:58.575Z,93172.44
2023-03-31T05:16:28.641Z,93187.34
2023-03-31T05:18:56.682Z,93162.56
2023-03-31T05:21:27.266Z,93177.75
2023-03-31T05:23:55.258Z,93175.09
2023-03-31T05:26:25.510Z,93177.75
2023-03-31T05:28:53.651Z,93137.34
2023-03-31T05:31:21.591Z,93163.84
2023-03-31T05:33:50.036Z,93133.13
2023-03-31T05:36:20.632Z,93169.63
2023-03-31T05:38:48.736Z,93164.41
2023-03-31T05:41:17.544Z,93166.81
2023-03-31T05:43:45.774Z,93156.19
2023-03-31T05:46:15.719Z,93144.59
2023-03-31T05:48:48.288Z,93165.69
2023-03-31T05:51:17.314Z,93169.59
2023-03-31T05:53:47.156Z,93181.03
2023-03-31T05:56:15.590Z,93191.47
2023-03-31T05:58:45.018Z,93188.94
2023-03-31T06:01:24.093Z,93199.56
2023-03-31T06:03:54.990Z,93183.28
2023-03-31T06:06:24.129Z,93192.78
2023-03-31T06:08:52.943Z,93189.88
2023-03-31T06:11:25.328Z,93178.19
2023-03-31T06:13:53.664Z,93186.22
2023-03-31T06:16:21.379Z,93172.41
2023-03-31T06:18:52.218Z,93178.97
2023-03-31T06:21:21.455Z,93142.91
2023-03-31T06:23:50.364Z,93169.59
2023-03-31T06:26:20.255Z,93167.16
2023-03-31T06:28:48.223Z,93156.28
2023-03-31T06:31:19.241Z,93160.53
2023-03-31T06:33:54.157Z,93156.06
2023-03-31T06:36:31.963Z,93145.78
2023-03-31T06:59:03.014Z,93098.28
2023-03-31T07:01:56.032Z,93090.38
2023-03-31T07:04:26.551Z,93057.34
2023-03-31T07:11:01.711Z,93067.41
2023-03-31T07:13:32.663Z,93055.16
2023-03-31T07:16:02.728Z,93035.06
2023-03-31T07:18:35.855Z,93038.50
2023-03-31T07:21:10.177Z,93014.97
2023-03-31T07:23:40.312Z,93021.81
2023-03-31T07:26:11.230Z,93007.41
2023-03-31T07:29:01.611Z,93018.09
2023-03-31T07:31:33.712Z,93074.53
2023-03-31T07:34:07.610Z,93115.28
2023-03-31T07:36:37.874Z,93104.25
2023-03-31T07:39:16.852Z,93131.28
2023-03-31T07:41:55.169Z,93162.31
2023-03-31T07:44:47.216Z,93139.97
2023-03-31T07:50:53.706Z,93190.53
2023-03-31T07:53:40.450Z,93181.19
2023-03-31T07:59:49.612Z,93123.47
2023-03-31T08:03:32.020Z,93120.31
2023-03-31T08:05:59.092Z,93104.38
2023-03-31T08:08:26.355Z,93088.44
2023-03-31T08:10:53.064Z,93104.66
2023-03-31T08:39:35.064Z,93040.13
2023-03-31T08:42:38.931Z,93035.75
2023-03-31T08:45:26.909Z,93040.22
2023-03-31T08:48:07.440Z,93029.16
2023-03-31T08:54:15.232Z,93035.03
2023-03-31T08:57:24.424Z,93033.25
2023-03-31T08:59:53.259Z,93052.09
2023-03-31T09:02:34.541Z,93051.72
2023-03-31T09:05:45.948Z,93054.41
2023-03-31T09:08:43.374Z,93047.63
2023-03-31T09:12:06.222Z,93052.59
2023-03-31T09:15:11.672Z,93034.41
2023-03-31T09:17:45.923Z,93022.91
2023-03-31T09:20:20.298Z,93006.41
2023-03-31T09:22:59.743Z,93012.59
2023-03-31T09:25:38.887Z,93018.00
2023-03-31T09:28:46.021Z,93011.78
2023-03-31T09:31:19.751Z,92976.72
2023-03-31T09:33:55.039Z,93017.59
2023-03-31T09:36:26.108Z,92990.97
2023-03-31T09:38:59.586Z,92987.94
2023-03-31T09:41:34.901Z,92986.41
2023-03-31T09:44:04.933Z,92994.84
2023-03-31T09:46:57.953Z,92992.56
2023-03-31T09:49:33.234Z,92978.66
2023-03-31T09:52:31.241Z,92992.94
2023-03-31T09:55:03.641Z,92975.22
2023-03-31T09:57:34.486Z,92968.63
2023-03-31T10:00:16.836Z,92965.75
2023-03-31T10:02:45.952Z,92957.13
2023-03-31T10:05:33.499Z,92956.53
2023-03-31T10:08:18.538Z,92956.66
2023-03-31T10:11:06.514Z,92946.94
2023-03-31T10:13:58.839Z,92948.38
2023-03-31T10:16:32.361Z,92963.97
2023-03-31T10:19:24.973Z,92957.88
2023-03-31T10:22:06.056Z,92964.00
2023-03-31T10:24:41.516Z,92947.06
2023-03-31T10:27:18.904Z,92949.75
2023-03-31T10:29:47.274Z,92932.81
2023-03-31T10:32:38.202Z,92942.41
2023-03-31T10:35:09.005Z,92946.63
2023-03-31T10:37:36.826Z,92937.34
2023-03-31T10:40:18.898Z,92937.75
2023-03-31T10:42:57.896Z,92928.56
2023-03-31T10:45:36.989Z,92916.63
2023-03-31T10:48:06.970Z,92905.06
2023-03-31T10:50:36.816Z,92910.81
2023-03-31T10:53:03.660Z,92911.56
2023-03-31T10:55:35.784Z,92902.19
2023-03-31T10:58:10.331Z,92892.44
2023-03-31T11:01:05.027Z,92901.44
2023-03-31T11:04:02.693Z,92885.59
2023-03-31T11:06:35.545Z,92882.56
2023-03-31T11:09:14.294Z,92879.09
2023-03-31T11:12:00.413Z,92870.41
2023-03-31T11:14:35.994Z,92867.13
2023-03-31T11:17:23.502Z,92875.84
2023-03-31T11:20:05.686Z,92866.56
2023-03-31T11:22:44.311Z,92855.06
2023-03-31T11:25:35.174Z,92844.75
2023-03-31T11:28:39.697Z,92842.88
2023-03-31T11:31:29.846Z,92844.69
2023-03-31T11:33:59.552Z,92841.25
2023-03-31T11:36:36.956Z,92833.06
2023-03-31T11:39:40.058Z,92821.63
2023-03-31T11:42:17.347Z,92834.78
2023-03-31T11:44:53.338Z,92833.56
2023-03-31T11:47:24.828Z,92840.56
2023-03-31T11:49:57.262Z,92817.22
2023-03-31T11:52:37.741Z,92799.00
2023-03-31T11:55:16.772Z,92794.22
2023-03-31T11:58:01.344Z,92803.97
2023-03-31T12:01:01.978Z,92827.38
2023-03-31T12:04:02.422Z,92933.91
2023-03-31T12:06:33.786Z,92963.78
2023-03-31T12:09:37.805Z,92989.19
2023-03-31T12:12:14.301Z,92980.94
2023-03-31T12:14:48.219Z,92952.97
2023-03-31T12:17:19.146Z,92951.63
2023-03-31T12:19:53.575Z,92957.66
2023-03-31T12:22:30.478Z,92934.19
2023-03-31T12:24:57.415Z,92931.25
2023-03-31T12:27:30.131Z,92928.69
2023-03-31T12:30:07.043Z,92933.94
2023-03-31T12:32:38.241Z,92919.50
2023-03-31T12:35:22.802Z,92898.31
2023-03-31T12:38:14.326Z,92894.16
2023-03-31T12:40:57.638Z,92878.38
2023-03-31T12:44:04.316Z,92879.81
2023-03-31T12:46:46.085Z,92874.94
2023-03-31T12:49:37.545Z,92881.16
2023-03-31T12:52:08.903Z,92885.00
2023-03-31T12:55:03.068Z,92897.41
2023-03-31T12:57:29.865Z,92867.41
2023-03-31T13:00:12.634Z,92873.19
2023-03-31T13:02:43.111Z,92867.88
2023-03-31T13:05:37.813Z,92879.97
2023-03-31T13:08:05.839Z,92865.03
2023-03-31T13:10:33.586Z,92847.28
2023-03-31T13:13:11.899Z,92849.16
2023-03-31T13:15:39.773Z,92857.66
2023-03-31T13:18:07.584Z,92863.84
2023-03-31T13:20:38.301Z,92844.53
2023-03-31T13:23:12.154Z,92853.41
2023-03-31T13:25:50.773Z,92852.63
2023-03-31T13:28:23.611Z,92852.66
2023-03-31T13:31:01.988Z,92838.38
2023-03-31T13:33:35.562Z,92822.16
2023-03-31T13:36:05.224Z,92831.00
2023-03-31T13:38:41.010Z,92805.25
2023-03-31T13:41:40.509Z,92821.38
2023-03-31T13:44:10.795Z,92816.78
2023-03-31T13:46:51.358Z,92822.25
2023-03-31T13:49:43.742Z,92811.84
2023-03-31T13:52:14.008Z,92815.34
2023-03-31T13:54:58.999Z,92808.41
2023-03-31T13:58:24.756Z,92817.63
2023-03-31T14:01:13.018Z,92826.06
2023-03-31T14:03:50.092Z,92825.72
2023-03-31T14:06:30.445Z,92829.53
2023-03-31T14:09:01.983Z,92826.06
2023-03-31T14:11:31.706Z,92814.47
2023-03-31T14:14:29.832Z,92810.66
2023-03-31T14:17:02.453Z,92812.59
2023-03-31T14:19:41.346Z,92800.28
2023-03-31T14:22:40.543Z,92807.16
2023-03-31T14:25:22.141Z,92818.97
2023-03-31T14:28:32.046Z,92825.41
2023-03-31T14:31:28.194Z,92855.38
2023-03-31T14:34:16.841Z,92868.78
2023-03-31T14:36:57.840Z,92857.13
2023-03-31T14:39:30.217Z,92888.31
2023-03-31T14:41:59.545Z,92879.34
2023-03-31T14:44:26.964Z,92896.97
2023-03-31T14:46:57.242Z,92882.56
2023-03-31T14:49:37.390Z,92886.13
2023-03-31T14:52:25.278Z,92883.63
2023-03-31T14:54:53.508Z,92878.81
2023-03-31T14:57:27.995Z,92881.41
2023-03-31T14:59:55.839Z,92852.16
2023-03-31T15:02:35.135Z,92850.13
2023-03-31T15:05:05.642Z,92849.81
2023-03-31T15:07:32.651Z,92852.38
2023-03-31T15:10:00.152Z,92848.94
2023-03-31T15:12:29.464Z,92841.22
2023-03-31T15:15:03.893Z,92848.22
2023-03-31T15:17:36.456Z,92842.81
2023-03-31T15:20:28.727Z,92838.94
2023-03-31T15:22:56.850Z,92836.19
2023-03-31T15:25:36.552Z,92840.28
2023-03-31T15:28:10.169Z,92838.75
2023-03-31T15:30:37.656Z,92847.25
2023-03-31T15:33:18.887Z,92828.88
2023-03-31T15:35:47.019Z,92817.84
2023-03-31T15:38:18.191Z,92817.75
2023-03-31T15:40:54.473Z,92816.44
2023-03-31T15:43:30.800Z,92816.00
2023-03-31T15:45:58.656Z,92814.41
2023-03-31T15:48:36.483Z,92800.06
2023-03-31T15:51:17.202Z,92812.59
2023-03-31T15:53:46.363Z,92810.69
2023-03-31T15:56:38.285Z,92822.25
2023-03-31T15:59:05.950Z,92813.38
2023-03-31T16:01:42.233Z,92816.81
2023-03-31T16:04:12.181Z,92809.19
2023-03-31T16:06:45.450Z,92808.16
2023-03-31T16:09:15.027Z,92809.63
2023-03-31T16:11:47.148Z,92806.91
2023-03-31T16:14:17.484Z,92808.31
2023-03-31T16:16:50.980Z,92819.03
2023-03-31T16:19:21.322Z,92819.81
2023-03-31T16:21:52.759Z,92820.09
2023-03-31T16:24:21.435Z,92820.78
2023-03-31T16:26:49.037Z,92828.44
2023-03-31T16:29:22.625Z,92820.72
2023-03-31T16:31:49.728Z,92828.75
2023-03-31T16:34:16.742Z,92824.50
2023-03-31T16:36:43.620Z,92833.25
2023-03-31T16:39:10.317Z,92832.00
2023-03-31T16:41:38.151Z,92841.94
2023-03-31T16:44:06.405Z,92827.34
2023-03-31T16:46:33.418Z,92831.50
2023-03-31T16:49:00.333Z,92828.53
2023-03-31T16:51:27.046Z,92822.78
2023-03-31T16:53:54.023Z,92838.84
2023-03-31T16:56:21.984Z,92850.25
2023-03-31T16:58:49.098Z,92839.47
2023-03-31T17:01:16.004Z,92841.72
2023-03-31T17:03:42.929Z,92842.53
2023-03-31T17:06:12.658Z,92841.38
2023-03-31T17:08:39.882Z,92841.38
2023-03-31T17:11:08.672Z,92842.63
2023-03-31T17:13:35.360Z,92834.59
2023-03-31T17:16:16.500Z,92848.00
2023-03-31T17:18:45.897Z,92849.91
2023-03-31T17:21:16.620Z,92858.28
2023-03-31T17:23:43.349Z,92861.28
2023-03-31T17:26:12.817Z,92863.91
2023-03-31T17:28:40.549Z,92853.06
2023-03-31T17:31:13.618Z,92871.44
2023-03-31T17:33:41.780Z,92862.81
2023-03-31T17:36:08.620Z,92865.84
2023-03-31T17:38:35.738Z,92871.16
2023-03-31T17:41:06.460Z,92874.94
2023-03-31T17:43:33.486Z,92875.16
2023-03-31T17:46:02.491Z,92874.22
2023-03-31T17:48:29.170Z,92877.59
2023-03-31T17:50:55.803Z,92871.75
2023-03-31T17:53:22.429Z,92895.56
2023-03-31T17:55:49.066Z,92889.56
2023-03-31T17:58:16.124Z,92893.06
2023-03-31T18:00:42.753Z,92905.22
2023-03-31T18:03:09.396Z,92889.44
2023-03-31T18:05:37.115Z,92886.72
2023-03-31T18:08:03.744Z,92886.38
2023-03-31T18:10:31.501Z,92890.88
2023-03-31T18:12:59.787Z,92889.31
2023-03-31T18:15:26.480Z,92878.81
2023-03-31T18:17:53.411Z,92883.72
2023-03-31T18:20:20.772Z,92887.94
2023-03-31T18:22:47.730Z,92884.50
2023-03-31T18:25:15.351Z,92897.44
2023-03-31T18:27:42.235Z,92895.84
2023-03-31T18:30:09.410Z,92911.13
2023-03-31T18:32:36.769Z,92908.47
2023-03-31T18:35:03.803Z,92904.19
2023-03-31T18:37:30.447Z,92906.53
2023-03-31T18:39:57.069Z,92906.66
2023-03-31T18:42:25.756Z,92911.13
2023-03-31T18:44:53.292Z,92916.47
2023-03-31T18:47:20.712Z,92914.25
2023-03-31T18:49:48.522Z,92915.09
2023-03-31T18:52:15.488Z,92913.63
2023-03-31T18:54:42.131Z,92907.94
2023-03-31T18:57:09.018Z,92900.34
2023-03-31T18:59:35.868Z,92900.63
2023-03-31T19:02:02.704Z,92903.28
2023-03-31T19:04:30.200Z,92909.25
2023-03-31T19:06:57.026Z,92913.81
2023-03-31T19:09:26.079Z,92906.53
2023-03-31T19:11:53.902Z,92906.78
2023-03-31T19:14:20.889Z,92910.66
2023-03-31T19:16:47.664Z,92921.00
2023-03-31T19:19:14.315Z,92920.28
2023-03-31T19:21:41.728Z,92923.72
2023-03-31T19:24:09.231Z,92922.53
2023-03-31T19:26:37.301Z,92922.25
2023-03-31T19:29:05.244Z,92936.81
2023-03-31T19:31:38.391Z,92930.63
2023-03-31T19:34:05.429Z,92936.31
2023-03-31T19:36:32.411Z,92947.72
2023-03-31T19:38:59.357Z,92939.25
2023-03-31T19:41:27.518Z,92940.03
2023-03-31T19:43:55.391Z,92940.81
2023-03-31T19:46:22.054Z,92939.25
2023-03-31T19:48:48.777Z,92946.94
2023-03-31T19:51:15.706Z,92935.38
2023-03-31T19:53:42.731Z,92936.84
2023-03-31T19:56:15.120Z,92934.44
2023-03-31T19:58:42.410Z,92932.13
2023-03-31T20:01:15.406Z,92929.00
2023-03-31T20:03:42.109Z,92921.28
2023-03-31T20:06:13.789Z,92915.94
2023-03-31T20:08:42.650Z,92920.00
2023-03-31T20:11:13.386Z,92927.75
2023-03-31T20:13:42.075Z,92930.47
2023-03-31T20:16:19.171Z,92938.16
2023-03-31T20:18:51.859Z,92928.53
2023-03-31T20:21:21.221Z,92935.13
2023-03-31T20:23:48.514Z,92935.56
2023-03-31T20:26:21.612Z,92935.81
2023-03-31T20:28:48.453Z,92945.31
2023-03-31T20:31:21.718Z,92941.16
2023-03-31T20:33:49.121Z,92940.38
2023-03-31T20:36:18.846Z,92946.59
2023-03-31T20:38:48.200Z,92954.50
2023-03-31T20:41:15.769Z,92950.22
2023-03-31T20:43:42.583Z,92950.41
2023-03-31T20:46:10.341Z,92949.72
2023-03-31T20:48:39.963Z,92955.81
2023-03-31T20:51:10.146Z,92951.94
2023-03-31T20:53:42.070Z,92951.53
2023-03-31T20:56:18.409Z,92956.84
2023-03-31T20:58:46.207Z,92955.22
2023-03-31T21:01:14.452Z,92958.84
2023-03-31T21:03:41.652Z,92944.53
2023-03-31T21:06:12.115Z,92943.44
2023-03-31T21:08:45.385Z,92955.66
2023-03-31T21:11:13.109Z,92942.56
2023-03-31T21:13:39.756Z,92941.25
2023-03-31T21:16:06.926Z,92948.25
2023-03-31T21:18:34.856Z,92949.78
2023-03-31T21:21:06.578Z,92943.47
2023-03-31T21:23:33.293Z,92947.09
2023-03-31T21:26:02.064Z,92949.59
2023-03-31T21:28:31.368Z,92963.56
2023-03-31T21:31:15.373Z,92961.66
2023-03-31T21:33:43.788Z,92964.72
2023-03-31T21:36:13.709Z,92965.78
2023-03-31T21:38:40.893Z,92965.34
2023-03-31T21:41:13.405Z,92966.13
2023-03-31T21:43:40.871Z,92965.25
2023-03-31T21:46:08.008Z,92969.91
2023-03-31T21:48:35.624Z,92967.66
2023-03-31T21:51:03.120Z,92963.78
2023-03-31T21:53:51.447Z,92971.34
2023-03-31T21:56:56.010Z,92963.25
2023-03-31T21:59:29.233Z,92961.81
2023-03-31T22:02:16.673Z,92966.78
2023-03-31T22:04:47.774Z,92961.59
2023-03-31T22:07:22.052Z,92966.69
2023-03-31T22:09:49.990Z,92967.03
2023-03-31T22:12:47.699Z,92960.59
2023-03-31T22:15:51.204Z,92962.72
2023-03-31T22:18:23.738Z,92958.84
2023-03-31T22:20:53.451Z,92959.09
2023-03-31T22:23:47.418Z,92966.22
2023-03-31T22:26:18.679Z,92954.25
2023-03-31T22:28:47.844Z,92948.38
2023-03-31T22:31:16.464Z,92964.03
2023-03-31T22:33:45.965Z,92971.91
2023-03-31T22:36:15.002Z,92960.59
2023-03-31T22:38:50.343Z,92957.81
2023-03-31T22:41:25.828Z,92969.13
2023-03-31T22:43:55.075Z,92958.19
2023-03-31T22:46:22.934Z,92962.75
2023-03-31T22:48:51.404Z,92956.75
2023-03-31T22:51:25.598Z,92969.19
2023-03-31T22:54:01.797Z,92963.75
2023-03-31T22:56:33.051Z,92968.75
2023-03-31T22:59:03.832Z,92955.75
2023-03-31T23:01:38.513Z,92961.19
2023-03-31T23:04:25.166Z,92972.03
2023-03-31T23:07:05.489Z,92971.16
2023-03-31T23:09:46.633Z,92963.84
2023-03-31T23:12:50.751Z,92964.97
2023-03-31T23:15:34.991Z,92956.53
2023-03-31T23:24:23.677Z,92966.44
2023-03-31T23:27:42.221Z,92964.09
2023-03-31T23:30:09.721Z,92976.31
2023-03-31T23:32:44.475Z,92966.00
2023-03-31T23:35:14.438Z,92967.25
2023-03-31T23:37:48.686Z,92975.03
2023-03-31T23:44:21.770Z,92980.16
2023-03-31T23:47:03.261Z,92961.72
2023-03-31T23:49:40.762Z,92975.59
2023-03-31T23:55:25.865Z,92953.72
2023-03-31T23:57:58.654Z,92948.72
